Francis Beaufort — LXBO — position and weather

sailwx.info

Track history (hours):
 
Tides and Currents Weather Stations Pressure Air Temp Water Temp Dewpoint Dewpoint Depression Visibility Wind Speed Wind Dir Waves Ship Positions

Francis Beaufort

Last reported at 2018-Aug-19 19:38 UTC. Time now 2018-Aug-19 22:50 UTC.
Position N 48°52' W 005°20'.

Length 143 m; draft 6 m.

Type: Dredging. MMSI: 253248000.

Date/timePositionNaut miles runAvg speedWind from/ knotsBaromVisibWave heightAir tempDewpointWater temp
2018-Aug-19 19:38N 48°52' W 005°20'211.4
2018-Aug-19 19:26N 48°50' W 005°23'611.4
2018-Aug-19 18:53N 48°47' W 005°31'4711.2
2018-Aug-19 14:43N 48°05' W 006°01'2911.4
2018-Aug-19 12:10N 47°37' W 006°16'211.4
2018-Aug-19 12:00N 47°36' W 006°17'611.4
2018-Aug-19 11:29N 47°30' W 006°20'611.3
2018-Aug-19 10:58N 47°25' W 006°23'1011.4
2018-Aug-19 10:05N 47°15' W 006°29'111.4
2018-Aug-19 09:59N 47°14' W 006°29'2011.3
2018-Aug-19 08:14N 46°57' W 006°43'311.4
2018-Aug-19 08:00N 46°55' W 006°45'2111.4
2018-Aug-19 06:12N 46°37' W 007°01'411.2
2018-Aug-19 05:52N 46°34' W 007°04'44711.1
2018-Aug-17 13:27N 39°24' W 009°51'611.7
2018-Aug-17 12:58N 39°19' W 009°51'511.2
2018-Aug-17 12:30N 39°13' W 009°51'4 8.0
2018-Aug-17 12:01N 39°10' W 009°51'5 9.6
2018-Aug-17 11:31N 39°05' W 009°51'4 7.9
2018-Aug-17 11:01N 39°01' W 009°51'5 9.7
2018-Aug-17 10:29N 38°56' W 009°51'611.4
2018-Aug-17 10:00N 38°50' W 009°51'611.4
2018-Aug-17 09:31N 38°45' W 009°51'611.4
2018-Aug-17 09:00N 38°39' W 009°51'611.4
2018-Aug-17 08:29N 38°33' W 009°52'611.4
2018-Aug-17 07:57N 38°27' W 009°52'3611.4
2018-Aug-17 04:47N 37°52' W 009°40'411.3
2018-Aug-17 04:25N 37°48' W 009°38'811.3
2018-Aug-17 03:41N 37°40' W 009°35'211.3
2018-Aug-17 03:30N 37°38' W 009°35'6210.7
2018-Aug-16 21:46N 36°43' W 009°01'411.3
2018-Aug-16 21:25N 36°41' W 008°56'711.3
2018-Aug-16 20:47N 36°39' W 008°48'  
2018-Aug-14 04:04N 37°24' E 004°49'111.8
2018-Aug-14 03:59N 37°24' E 004°50'2011.8
2018-Aug-14 02:18N 37°26' E 005°15'511.8
2018-Aug-14 01:51N 37°27' E 005°22'411.8
2018-Aug-14 01:29N 37°27' E 005°27'33411.5
2018-Aug-12 20:18N 36°59' E 012°26'1911.8
2018-Aug-12 18:41N 36°50' E 012°47'211.8
2018-Aug-12 18:30N 36°49' E 012°50'611.8
2018-Aug-12 18:00N 36°47' E 012°56'611.8
2018-Aug-12 17:30N 36°44' E 013°03'611.8
2018-Aug-12 17:00N 36°42' E 013°10'611.8
2018-Aug-12 16:30N 36°39' E 013°16'611.8
2018-Aug-12 16:00N 36°37' E 013°23'83 2.9
2018-Aug-11 10:58N 35°55' E 014°52'0 0.0
2018-Aug-11 10:28N 35°55' E 014°52'0 0.0
2018-Aug-11 09:58N 35°55' E 014°52'0 0.0
2018-Aug-11 09:28N 35°55' E 014°52'0 0.0
2018-Aug-11 08:58N 35°55' E 014°52'0 0.0
2018-Aug-11 08:28N 35°55' E 014°52'0 0.0
2018-Aug-11 07:58N 35°55' E 014°52'0 0.0
2018-Aug-11 07:28N 35°55' E 014°52'0 0.0
2018-Aug-11 06:46N 35°55' E 014°52'0 0.0
2018-Aug-11 06:28N 35°55' E 014°52'0 0.0
2018-Aug-11 05:58N 35°55' E 014°52'0 0.0
2018-Aug-11 05:25N 35°55' E 014°52'0 0.0
2018-Aug-11 04:58N 35°55' E 014°52'0 0.0
2018-Aug-11 04:28N 35°55' E 014°52'0 0.0
2018-Aug-11 03:55N 35°55' E 014°52'0 0.0
2018-Aug-11 03:28N 35°55' E 014°52'0 0.0
2018-Aug-11 02:46N 35°55' E 014°52'0 0.0
2018-Aug-11 02:25N 35°55' E 014°52'0 0.0
2018-Aug-11 01:58N 35°55' E 014°52'0 0.0
2018-Aug-11 01:28N 35°55' E 014°52'0 0.0
2018-Aug-11 00:58N 35°55' E 014°52'0 0.0
2018-Aug-11 00:13N 35°55' E 014°52'0 0.0
2018-Aug-10 22:58N 35°55' E 014°52'0 0.0
2018-Aug-10 22:25N 35°55' E 014°52'0 0.0
2018-Aug-10 21:58N 35°55' E 014°52'0 0.0
2018-Aug-10 21:19N 35°55' E 014°52'0 0.0
2018-Aug-10 20:58N 35°55' E 014°52'0 0.0
2018-Aug-10 19:43N 35°55' E 014°52'0 0.0
2018-Aug-10 17:37N 35°55' E 014°52'0 0.0
2018-Aug-10 17:19N 35°55' E 014°52'0 0.0
2018-Aug-10 16:37N 35°55' E 014°52'0 0.0
2018-Aug-10 16:07N 35°55' E 014°52'0 0.0
2018-Aug-10 15:43N 35°55' E 014°52'0 0.0
2018-Aug-10 15:16N 35°55' E 014°52'0 0.0
2018-Aug-10 14:07N 35°55' E 014°52'0 0.0
2018-Aug-10 13:52N 35°55' E 014°52'0 0.0
2018-Aug-10 13:25N 35°55' E 014°52'0 0.0
2018-Aug-10 12:52N 35°55' E 014°52'0 0.0
2018-Aug-10 12:28N 35°55' E 014°52'0 0.0
2018-Aug-10 11:58N 35°55' E 014°52'0 0.0
2018-Aug-10 11:28N 35°55' E 014°52'0 0.0
2018-Aug-10 10:58N 35°55' E 014°52'0 0.0
2018-Aug-10 10:25N 35°55' E 014°52'0 0.0
2018-Aug-10 09:46N 35°55' E 014°52'0 0.0
2018-Aug-10 09:22N 35°55' E 014°52'0 0.0
2018-Aug-10 07:49N 35°55' E 014°52'0 0.0
2018-Aug-10 07:10N 35°55' E 014°52'0 0.0
2018-Aug-10 06:55N 35°55' E 014°52'0 0.0
2018-Aug-10 05:49N 35°55' E 014°52'0 0.0
2018-Aug-10 05:28N 35°55' E 014°52'0 0.0
2018-Aug-10 04:58N 35°55' E 014°52'0 0.1
2018-Aug-10 04:28N 35°55' E 014°52'0 0.0
2018-Aug-10 03:58N 35°55' E 014°52'0 0.0
2018-Aug-10 03:28N 35°55' E 014°52'0 0.0
2018-Aug-10 02:58N 35°55' E 014°52'0 0.0
2018-Aug-10 02:28N 35°55' E 014°52'0 0.0
2018-Aug-10 01:58N 35°55' E 014°52'0 0.0
2018-Aug-10 01:28N 35°55' E 014°52'0 0.0
2018-Aug-10 00:58N 35°55' E 014°52'0 0.0
2018-Aug-10 00:28N 35°55' E 014°52'0 0.0
2018-Aug-09 23:52N 35°55' E 014°52'0 0.0
2018-Aug-09 23:16N 35°55' E 014°52'0 0.0
2018-Aug-09 22:58N 35°55' E 014°52'0 0.0
2018-Aug-09 22:28N 35°55' E 014°52'  
Track history (hours):
 
Tides and Currents Weather Stations Pressure Air Temp Water Temp Dewpoint Dewpoint Depression Visibility Wind Speed Wind Dir Waves Ship Positions

Francis Beaufort

Last reported at 2018-Aug-19 19:38 UTC. Time now 2018-Aug-19 22:50 UTC.
Position N 48°52' W 005°20'.

Length 143 m; draft 6 m.

Type: Dredging. MMSI: 253248000.

Date/timePositionNaut miles runAvg speedWind from/ knotsBaromVisibWave heightAir tempDewpointWater temp
2018-Aug-19 19:38N 48°52' W 005°20'211.4
2018-Aug-19 19:26N 48°50' W 005°23'611.4
2018-Aug-19 18:53N 48°47' W 005°31'4711.2
2018-Aug-19 14:43N 48°05' W 006°01'2911.4
2018-Aug-19 12:10N 47°37' W 006°16'211.4
2018-Aug-19 12:00N 47°36' W 006°17'611.4
2018-Aug-19 11:29N 47°30' W 006°20'611.3
2018-Aug-19 10:58N 47°25' W 006°23'1011.4
2018-Aug-19 10:05N 47°15' W 006°29'111.4
2018-Aug-19 09:59N 47°14' W 006°29'2011.3
2018-Aug-19 08:14N 46°57' W 006°43'311.4
2018-Aug-19 08:00N 46°55' W 006°45'2111.4
2018-Aug-19 06:12N 46°37' W 007°01'411.2
2018-Aug-19 05:52N 46°34' W 007°04'44711.1
2018-Aug-17 13:27N 39°24' W 009°51'611.7
2018-Aug-17 12:58N 39°19' W 009°51'511.2
2018-Aug-17 12:30N 39°13' W 009°51'4 8.0
2018-Aug-17 12:01N 39°10' W 009°51'5 9.6
2018-Aug-17 11:31N 39°05' W 009°51'4 7.9
2018-Aug-17 11:01N 39°01' W 009°51'5 9.7
2018-Aug-17 10:29N 38°56' W 009°51'611.4
2018-Aug-17 10:00N 38°50' W 009°51'611.4
2018-Aug-17 09:31N 38°45' W 009°51'611.4
2018-Aug-17 09:00N 38°39' W 009°51'611.4
2018-Aug-17 08:29N 38°33' W 009°52'611.4
2018-Aug-17 07:57N 38°27' W 009°52'3611.4
2018-Aug-17 04:47N 37°52' W 009°40'411.3
2018-Aug-17 04:25N 37°48' W 009°38'811.3
2018-Aug-17 03:41N 37°40' W 009°35'211.3
2018-Aug-17 03:30N 37°38' W 009°35'6210.7
2018-Aug-16 21:46N 36°43' W 009°01'411.3
2018-Aug-16 21:25N 36°41' W 008°56'711.3
2018-Aug-16 20:47N 36°39' W 008°48'  
2018-Aug-14 04:04N 37°24' E 004°49'111.8
2018-Aug-14 03:59N 37°24' E 004°50'2011.8
2018-Aug-14 02:18N 37°26' E 005°15'511.8
2018-Aug-14 01:51N 37°27' E 005°22'411.8
2018-Aug-14 01:29N 37°27' E 005°27'33411.5
2018-Aug-12 20:18N 36°59' E 012°26'1911.8
2018-Aug-12 18:41N 36°50' E 012°47'211.8
2018-Aug-12 18:30N 36°49' E 012°50'611.8
2018-Aug-12 18:00N 36°47' E 012°56'611.8
2018-Aug-12 17:30N 36°44' E 013°03'611.8
2018-Aug-12 17:00N 36°42' E 013°10'611.8
2018-Aug-12 16:30N 36°39' E 013°16'611.8
2018-Aug-12 16:00N 36°37' E 013°23'83 2.9
2018-Aug-11 10:58N 35°55' E 014°52'0 0.0
2018-Aug-11 10:28N 35°55' E 014°52'0 0.0
2018-Aug-11 09:58N 35°55' E 014°52'0 0.0
2018-Aug-11 09:28N 35°55' E 014°52'0 0.0
2018-Aug-11 08:58N 35°55' E 014°52'0 0.0
2018-Aug-11 08:28N 35°55' E 014°52'0 0.0
2018-Aug-11 07:58N 35°55' E 014°52'0 0.0
2018-Aug-11 07:28N 35°55' E 014°52'0 0.0
2018-Aug-11 06:46N 35°55' E 014°52'0 0.0
2018-Aug-11 06:28N 35°55' E 014°52'0 0.0
2018-Aug-11 05:58N 35°55' E 014°52'0 0.0
2018-Aug-11 05:25N 35°55' E 014°52'0 0.0
2018-Aug-11 04:58N 35°55' E 014°52'0 0.0
2018-Aug-11 04:28N 35°55' E 014°52'0 0.0
2018-Aug-11 03:55N 35°55' E 014°52'0 0.0
2018-Aug-11 03:28N 35°55' E 014°52'0 0.0
2018-Aug-11 02:46N 35°55' E 014°52'0 0.0
2018-Aug-11 02:25N 35°55' E 014°52'0 0.0
2018-Aug-11 01:58N 35°55' E 014°52'0 0.0
2018-Aug-11 01:28N 35°55' E 014°52'0 0.0
2018-Aug-11 00:58N 35°55' E 014°52'0 0.0
2018-Aug-11 00:13N 35°55' E 014°52'0 0.0
2018-Aug-10 22:58N 35°55' E 014°52'0 0.0
2018-Aug-10 22:25N 35°55' E 014°52'0 0.0
2018-Aug-10 21:58N 35°55' E 014°52'0 0.0
2018-Aug-10 21:19N 35°55' E 014°52'0 0.0
2018-Aug-10 20:58N 35°55' E 014°52'0 0.0
2018-Aug-10 19:43N 35°55' E 014°52'0 0.0
2018-Aug-10 17:37N 35°55' E 014°52'0 0.0
2018-Aug-10 17:19N 35°55' E 014°52'0 0.0
2018-Aug-10 16:37N 35°55' E 014°52'0 0.0
2018-Aug-10 16:07N 35°55' E 014°52'0 0.0
2018-Aug-10 15:43N 35°55' E 014°52'0 0.0
2018-Aug-10 15:16N 35°55' E 014°52'0 0.0
2018-Aug-10 14:07N 35°55' E 014°52'0 0.0
2018-Aug-10 13:52N 35°55' E 014°52'0 0.0
2018-Aug-10 13:25N 35°55' E 014°52'0 0.0
2018-Aug-10 12:52N 35°55' E 014°52'0 0.0
2018-Aug-10 12:28N 35°55' E 014°52'0 0.0
2018-Aug-10 11:58N 35°55' E 014°52'0 0.0
2018-Aug-10 11:28N 35°55' E 014°52'0 0.0
2018-Aug-10 10:58N 35°55' E 014°52'0 0.0
2018-Aug-10 10:25N 35°55' E 014°52'0 0.0
2018-Aug-10 09:46N 35°55' E 014°52'0 0.0
2018-Aug-10 09:22N 35°55' E 014°52'0 0.0
2018-Aug-10 07:49N 35°55' E 014°52'0 0.0
2018-Aug-10 07:10N 35°55' E 014°52'0 0.0
2018-Aug-10 06:55N 35°55' E 014°52'0 0.0
2018-Aug-10 05:49N 35°55' E 014°52'0 0.0
2018-Aug-10 05:28N 35°55' E 014°52'0 0.0
2018-Aug-10 04:58N 35°55' E 014°52'0 0.1
2018-Aug-10 04:28N 35°55' E 014°52'0 0.0
2018-Aug-10 03:58N 35°55' E 014°52'0 0.0
2018-Aug-10 03:28N 35°55' E 014°52'0 0.0
2018-Aug-10 02:58N 35°55' E 014°52'0 0.0
2018-Aug-10 02:28N 35°55' E 014°52'0 0.0
2018-Aug-10 01:58N 35°55' E 014°52'0 0.0
2018-Aug-10 01:28N 35°55' E 014°52'0 0.0
2018-Aug-10 00:58N 35°55' E 014°52'0 0.0
2018-Aug-10 00:28N 35°55' E 014°52'0 0.0
2018-Aug-09 23:52N 35°55' E 014°52'0 0.0
2018-Aug-09 23:16N 35°55' E 014°52'0 0.0
2018-Aug-09 22:58N 35°55' E 014°52'0 0.0
2018-Aug-09 22:28N 35°55' E 014°52'  

Dump ship's entire track history